sensor_id;sensor_type;location;lat;lon;timestamp;P1;durP1;ratioP1;P2;durP2;ratioP2
20984;SDS011;10651;47.552;7.606;2023-03-01T07:20:35;39.90;;;22.47;;
20984;SDS011;10651;47.552;7.606;2023-03-01T07:23:25;41.10;;;24.50;;
20984;SDS011;10651;47.552;7.606;2023-03-01T07:26:00;34.80;;;23.10;;
20984;SDS011;10651;47.552;7.606;2023-03-01T07:28:29;40.67;;;23.73;;
20984;SDS011;10651;47.552;7.606;2023-03-01T07:31:04;37.07;;;23.73;;
20984;SDS011;10651;47.552;7.606;2023-03-01T07:33:34;48.83;;;24.50;;
20984;SDS011;10651;47.552;7.606;2023-03-01T07:36:12;41.90;;;25.73;;
20984;SDS011;10651;47.552;7.606;2023-03-01T07:41:19;38.03;;;23.70;;
20984;SDS011;10651;47.552;7.606;2023-03-01T07:43:49;39.17;;;23.33;;
20984;SDS011;10651;47.552;7.606;2023-03-01T07:46:17;41.23;;;25.20;;
20984;SDS011;10651;47.552;7.606;2023-03-01T07:48:54;36.03;;;24.13;;
20984;SDS011;10651;47.552;7.606;2023-03-01T07:51:23;37.83;;;23.83;;
20984;SDS011;10651;47.552;7.606;2023-03-01T07:54:12;38.60;;;24.60;;
20984;SDS011;10651;47.552;7.606;2023-03-01T07:56:40;45.77;;;24.13;;
20984;SDS011;10651;47.552;7.606;2023-03-01T07:59:12;40.97;;;25.50;;
20984;SDS011;10651;47.552;7.606;2023-03-01T08:01:41;45.83;;;27.73;;
20984;SDS011;10651;47.552;7.606;2023-03-01T08:04:16;48.33;;;24.93;;
20984;SDS011;10651;47.552;7.606;2023-03-01T08:06:45;41.30;;;26.63;;
20984;SDS011;10651;47.552;7.606;2023-03-01T08:09:40;48.77;;;26.00;;
20984;SDS011;10651;47.552;7.606;2023-03-01T08:12:08;41.03;;;24.97;;
20984;SDS011;10651;47.552;7.606;2023-03-01T08:14:46;41.70;;;25.70;;
20984;SDS011;10651;47.552;7.606;2023-03-01T08:17:14;40.63;;;24.00;;
20984;SDS011;10651;47.552;7.606;2023-03-01T08:33:30;44.20;;;29.23;;
20984;SDS011;10651;47.552;7.606;2023-03-01T08:36:26;42.73;;;24.80;;
20984;SDS011;10651;47.552;7.606;2023-03-01T08:39:20;40.77;;;25.80;;
20984;SDS011;10651;47.552;7.606;2023-03-01T08:41:51;47.67;;;27.13;;
20984;SDS011;10651;47.552;7.606;2023-03-01T08:48:15;51.50;;;24.17;;
20984;SDS011;10651;47.552;7.606;2023-03-01T08:50:40;41.93;;;25.73;;
20984;SDS011;10651;47.552;7.606;2023-03-01T08:53:12;38.70;;;25.10;;
20984;SDS011;10651;47.552;7.606;2023-03-01T08:55:43;48.23;;;26.70;;
20984;SDS011;10651;47.552;7.606;2023-03-01T08:58:09;45.97;;;25.83;;
20984;SDS011;10651;47.552;7.606;2023-03-01T09:00:45;50.20;;;25.27;;
20984;SDS011;10651;47.552;7.606;2023-03-01T09:03:11;39.80;;;25.17;;
20984;SDS011;10651;47.552;7.606;2023-03-01T09:05:52;38.13;;;25.57;;
20984;SDS011;10651;47.552;7.606;2023-03-01T09:08:23;48.73;;;26.17;;
20984;SDS011;10651;47.552;7.606;2023-03-01T09:10:48;54.37;;;27.23;;
20984;SDS011;10651;47.552;7.606;2023-03-01T09:13:20;50.93;;;27.33;;
20984;SDS011;10651;47.552;7.606;2023-03-01T09:15:57;39.90;;;25.43;;
20984;SDS011;10651;47.552;7.606;2023-03-01T09:18:35;43.07;;;26.00;;
20984;SDS011;10651;47.552;7.606;2023-03-01T09:21:15;46.33;;;27.10;;
20984;SDS011;10651;47.552;7.606;2023-03-01T09:23:42;45.20;;;26.07;;
20984;SDS011;10651;47.552;7.606;2023-03-01T09:26:47;41.77;;;25.83;;
20984;SDS011;10651;47.552;7.606;2023-03-01T09:29:19;44.03;;;26.27;;
20984;SDS011;10651;47.552;7.606;2023-03-01T09:31:48;44.10;;;25.77;;
20984;SDS011;10651;47.552;7.606;2023-03-01T09:34:26;41.63;;;26.33;;
20984;SDS011;10651;47.552;7.606;2023-03-01T09:37:01;46.37;;;26.43;;
20984;SDS011;10651;47.552;7.606;2023-03-01T09:39:27;41.03;;;26.53;;
20984;SDS011;10651;47.552;7.606;2023-03-01T09:42:11;38.13;;;26.40;;
20984;SDS011;10651;47.552;7.606;2023-03-01T09:44:48;51.20;;;27.03;;
20984;SDS011;10651;47.552;7.606;2023-03-01T09:47:42;45.77;;;27.30;;
20984;SDS011;10651;47.552;7.606;2023-03-01T09:50:21;38.57;;;24.37;;
20984;SDS011;10651;47.552;7.606;2023-03-01T09:53:02;44.00;;;26.33;;
20984;SDS011;10651;47.552;7.606;2023-03-01T09:55:45;44.10;;;24.63;;
20984;SDS011;10651;47.552;7.606;2023-03-01T09:58:29;51.50;;;25.80;;
20984;SDS011;10651;47.552;7.606;2023-03-01T10:04:11;52.27;;;26.00;;
20984;SDS011;10651;47.552;7.606;2023-03-01T10:10:02;53.20;;;28.10;;
20984;SDS011;10651;47.552;7.606;2023-03-01T10:13:04;44.60;;;28.10;;
20984;SDS011;10651;47.552;7.606;2023-03-01T10:16:12;54.83;;;27.20;;
20984;SDS011;10651;47.552;7.606;2023-03-01T10:19:03;43.57;;;27.23;;
20984;SDS011;10651;47.552;7.606;2023-03-01T10:21:31;51.07;;;28.67;;
20984;SDS011;10651;47.552;7.606;2023-03-01T10:24:13;43.17;;;27.77;;
20984;SDS011;10651;47.552;7.606;2023-03-01T10:29:11;51.93;;;27.53;;
20984;SDS011;10651;47.552;7.606;2023-03-01T10:31:42;48.93;;;28.87;;
20984;SDS011;10651;47.552;7.606;2023-03-01T10:34:20;47.80;;;28.13;;
20984;SDS011;10651;47.552;7.606;2023-03-01T10:36:54;50.97;;;29.93;;
20984;SDS011;10651;47.552;7.606;2023-03-01T10:39:34;47.17;;;30.30;;
20984;SDS011;10651;47.552;7.606;2023-03-01T10:42:01;54.37;;;29.03;;
20984;SDS011;10651;47.552;7.606;2023-03-01T10:44:41;44.37;;;28.13;;
20984;SDS011;10651;47.552;7.606;2023-03-01T10:47:13;41.10;;;28.53;;
20984;SDS011;10651;47.552;7.606;2023-03-01T10:49:59;47.77;;;30.20;;
20984;SDS011;10651;47.552;7.606;2023-03-01T10:52:36;46.03;;;28.77;;
20984;SDS011;10651;47.552;7.606;2023-03-01T11:00:45;45.50;;;28.47;;
20984;SDS011;10651;47.552;7.606;2023-03-01T11:03:19;60.07;;;30.27;;
20984;SDS011;10651;47.552;7.606;2023-03-01T11:16:44;51.97;;;29.20;;
20984;SDS011;10651;47.552;7.606;2023-03-01T11:24:12;54.00;;;29.50;;
20984;SDS011;10651;47.552;7.606;2023-03-01T11:26:50;65.60;;;30.43;;
20984;SDS011;10651;47.552;7.606;2023-03-01T11:32:16;48.37;;;28.67;;
20984;SDS011;10651;47.552;7.606;2023-03-01T11:34:50;49.87;;;29.03;;
20984;SDS011;10651;47.552;7.606;2023-03-01T11:37:37;59.00;;;31.03;;
20984;SDS011;10651;47.552;7.606;2023-03-01T11:40:29;48.47;;;30.43;;
20984;SDS011;10651;47.552;7.606;2023-03-01T11:56:35;52.97;;;31.23;;
20984;SDS011;10651;47.552;7.606;2023-03-01T12:08:04;47.23;;;29.83;;
20984;SDS011;10651;47.552;7.606;2023-03-01T12:24:46;55.93;;;32.93;;
20984;SDS011;10651;47.552;7.606;2023-03-01T12:27:34;58.20;;;32.03;;
20984;SDS011;10651;47.552;7.606;2023-03-01T12:30:25;47.47;;;31.00;;
20984;SDS011;10651;47.552;7.606;2023-03-01T12:33:08;48.70;;;31.87;;
20984;SDS011;10651;47.552;7.606;2023-03-01T12:41:46;51.30;;;32.40;;
20984;SDS011;10651;47.552;7.606;2023-03-01T12:46:52;48.53;;;30.30;;
20984;SDS011;10651;47.552;7.606;2023-03-01T12:49:30;52.43;;;30.50;;
20984;SDS011;10651;47.552;7.606;2023-03-01T12:54:35;50.30;;;31.20;;
20984;SDS011;10651;47.552;7.606;2023-03-01T12:57:03;53.70;;;31.07;;
20984;SDS011;10651;47.552;7.606;2023-03-01T12:59:40;55.33;;;30.50;;
20984;SDS011;10651;47.552;7.606;2023-03-01T13:02:19;48.87;;;29.43;;
20984;SDS011;10651;47.552;7.606;2023-03-01T13:07:58;52.67;;;31.27;;
20984;SDS011;10651;47.552;7.606;2023-03-01T13:17:48;49.90;;;32.43;;
20984;SDS011;10651;47.552;7.606;2023-03-01T13:20:33;50.70;;;32.37;;
20984;SDS011;10651;47.552;7.606;2023-03-01T13:23:13;45.17;;;30.27;;
20984;SDS011;10651;47.552;7.606;2023-03-01T13:31:03;46.27;;;28.83;;
20984;SDS011;10651;47.552;7.606;2023-03-01T14:18:35;50.83;;;31.53;;
20984;SDS011;10651;47.552;7.606;2023-03-01T14:38:47;47.77;;;30.83;;
20984;SDS011;10651;47.552;7.606;2023-03-01T14:41:17;50.30;;;30.83;;
20984;SDS011;10651;47.552;7.606;2023-03-01T14:44:00;52.53;;;31.07;;
20984;SDS011;10651;47.552;7.606;2023-03-01T14:46:40;51.00;;;30.83;;
20984;SDS011;10651;47.552;7.606;2023-03-01T14:49:24;45.57;;;29.10;;
20984;SDS011;10651;47.552;7.606;2023-03-01T15:01:29;43.57;;;28.57;;
20984;SDS011;10651;47.552;7.606;2023-03-01T15:13:43;54.60;;;30.13;;
20984;SDS011;10651;47.552;7.606;2023-03-01T15:16:56;45.00;;;28.87;;
20984;SDS011;10651;47.552;7.606;2023-03-01T15:27:02;45.77;;;29.00;;
20984;SDS011;10651;47.552;7.606;2023-03-01T15:29:52;43.97;;;30.23;;
20984;SDS011;10651;47.552;7.606;2023-03-01T15:39:48;47.07;;;29.10;;
20984;SDS011;10651;47.552;7.606;2023-03-01T18:15:48;54.10;;;30.47;;
20984;SDS011;10651;47.552;7.606;2023-03-01T18:25:43;52.37;;;29.10;;
20984;SDS011;10651;47.552;7.606;2023-03-01T18:49:50;50.87;;;31.30;;
20984;SDS011;10651;47.552;7.606;2023-03-01T18:53:00;51.97;;;30.47;;
20984;SDS011;10651;47.552;7.606;2023-03-01T19:20:01;52.40;;;32.47;;
20984;SDS011;10651;47.552;7.606;2023-03-01T19:26:42;46.90;;;29.80;;
20984;SDS011;10651;47.552;7.606;2023-03-01T20:05:31;48.73;;;31.50;;
20984;SDS011;10651;47.552;7.606;2023-03-01T20:13:59;41.83;;;28.73;;
20984;SDS011;10651;47.552;7.606;2023-03-01T20:16:43;51.67;;;30.63;;
20984;SDS011;10651;47.552;7.606;2023-03-01T20:19:15;49.27;;;30.93;;
20984;SDS011;10651;47.552;7.606;2023-03-01T20:21:53;54.77;;;30.37;;
20984;SDS011;10651;47.552;7.606;2023-03-01T20:24:24;44.60;;;29.60;;
20984;SDS011;10651;47.552;7.606;2023-03-01T20:26:50;49.30;;;30.23;;
20984;SDS011;10651;47.552;7.606;2023-03-01T20:29:24;49.83;;;31.23;;
20984;SDS011;10651;47.552;7.606;2023-03-01T20:32:17;49.50;;;30.87;;
20984;SDS011;10651;47.552;7.606;2023-03-01T20:34:57;54.17;;;33.43;;
20984;SDS011;10651;47.552;7.606;2023-03-01T20:37:39;55.10;;;34.50;;
20984;SDS011;10651;47.552;7.606;2023-03-01T20:40:24;57.47;;;34.43;;
20984;SDS011;10651;47.552;7.606;2023-03-01T21:03:46;57.23;;;35.27;;
20984;SDS011;10651;47.552;7.606;2023-03-01T21:06:17;51.90;;;33.77;;
20984;SDS011;10651;47.552;7.606;2023-03-01T21:08:58;57.20;;;33.80;;
20984;SDS011;10651;47.552;7.606;2023-03-01T21:11:30;56.10;;;35.75;;
20984;SDS011;10651;47.552;7.606;2023-03-01T21:14:01;51.77;;;33.20;;
20984;SDS011;10651;47.552;7.606;2023-03-01T21:16:48;52.40;;;34.13;;
20984;SDS011;10651;47.552;7.606;2023-03-01T21:19:56;58.07;;;33.97;;
20984;SDS011;10651;47.552;7.606;2023-03-01T21:22:41;50.00;;;33.37;;
20984;SDS011;10651;47.552;7.606;2023-03-01T21:25:23;57.88;;;38.50;;
20984;SDS011;10651;47.552;7.606;2023-03-01T21:28:13;55.83;;;34.23;;
20984;SDS011;10651;47.552;7.606;2023-03-01T22:04:58;53.60;;;33.80;;
20984;SDS011;10651;47.552;7.606;2023-03-01T22:07:47;51.03;;;32.90;;
20984;SDS011;10651;47.552;7.606;2023-03-01T22:10:24;52.97;;;33.87;;
20984;SDS011;10651;47.552;7.606;2023-03-01T22:13:19;50.67;;;32.83;;
20984;SDS011;10651;47.552;7.606;2023-03-01T22:16:39;56.80;;;33.17;;
20984;SDS011;10651;47.552;7.606;2023-03-01T22:19:27;52.27;;;32.60;;
20984;SDS011;10651;47.552;7.606;2023-03-01T22:27:16;59.50;;;35.17;;
20984;SDS011;10651;47.552;7.606;2023-03-01T22:36:40;53.03;;;34.33;;
20984;SDS011;10651;47.552;7.606;2023-03-01T22:42:59;56.93;;;33.27;;
20984;SDS011;10651;47.552;7.606;2023-03-01T22:45:31;52.73;;;34.00;;
20984;SDS011;10651;47.552;7.606;2023-03-01T22:48:09;57.53;;;34.17;;
